sensor_id;sensor_type;location;lat;lon;timestamp;temperature;humidity
72772;SHT30;60894;42.544;1.516;2023-04-29T00:00:45;14.61;61.93
72772;SHT30;60894;42.544;1.516;2023-04-29T00:03:12;14.65;61.84
72772;SHT30;60894;42.544;1.516;2023-04-29T00:05:38;14.65;62.06
72772;SHT30;60894;42.544;1.516;2023-04-29T00:08:05;14.78;61.58
72772;SHT30;60894;42.544;1.516;2023-04-29T00:10:32;14.71;61.59
72772;SHT30;60894;42.544;1.516;2023-04-29T00:12:59;14.67;61.85
72772;SHT30;60894;42.544;1.516;2023-04-29T00:15:26;14.67;61.56
72772;SHT30;60894;42.544;1.516;2023-04-29T00:17:54;14.74;61.12
72772;SHT30;60894;42.544;1.516;2023-04-29T00:20:21;14.68;61.33
72772;SHT30;60894;42.544;1.516;2023-04-29T00:22:48;14.64;61.58
72772;SHT30;60894;42.544;1.516;2023-04-29T00:25:15;14.72;61.35
72772;SHT30;60894;42.544;1.516;2023-04-29T00:27:42;14.63;61.83
72772;SHT30;60894;42.544;1.516;2023-04-29T00:30:10;14.64;62.00
72772;SHT30;60894;42.544;1.516;2023-04-29T00:32:37;14.67;61.61
72772;SHT30;60894;42.544;1.516;2023-04-29T00:35:06;14.63;61.98
72772;SHT30;60894;42.544;1.516;2023-04-29T00:37:33;14.54;62.20
72772;SHT30;60894;42.544;1.516;2023-04-29T00:40:00;14.57;62.20
72772;SHT30;60894;42.544;1.516;2023-04-29T00:42:28;14.60;62.20
72772;SHT30;60894;42.544;1.516;2023-04-29T00:44:55;14.52;62.24
72772;SHT30;60894;42.544;1.516;2023-04-29T00:47:22;14.60;62.05
72772;SHT30;60894;42.544;1.516;2023-04-29T00:49:49;14.51;62.21
72772;SHT30;60894;42.544;1.516;2023-04-29T00:52:18;14.48;62.72
72772;SHT30;60894;42.544;1.516;2023-04-29T00:54:45;14.48;62.39
72772;SHT30;60894;42.544;1.516;2023-04-29T00:57:13;14.40;63.12
72772;SHT30;60894;42.544;1.516;2023-04-29T00:59:40;14.33;63.32
72772;SHT30;60894;42.544;1.516;2023-04-29T01:02:07;14.33;63.20
72772;SHT30;60894;42.544;1.516;2023-04-29T01:04:35;14.27;63.28
72772;SHT30;60894;42.544;1.516;2023-04-29T01:07:06;14.30;63.25
72772;SHT30;60894;42.544;1.516;2023-04-29T01:09:48;14.30;63.19
72772;SHT30;60894;42.544;1.516;2023-04-29T01:12:20;14.21;63.63
72772;SHT30;60894;42.544;1.516;2023-04-29T01:14:53;14.16;64.07
72772;SHT30;60894;42.544;1.516;2023-04-29T01:17:29;14.16;63.89
72772;SHT30;60894;42.544;1.516;2023-04-29T01:19:58;14.16;63.75
72772;SHT30;60894;42.544;1.516;2023-04-29T01:22:26;14.17;63.23
72772;SHT30;60894;42.544;1.516;2023-04-29T01:24:55;14.13;63.83
72772;SHT30;60894;42.544;1.516;2023-04-29T01:27:28;14.18;63.64
72772;SHT30;60894;42.544;1.516;2023-04-29T01:30:00;14.09;63.63
72772;SHT30;60894;42.544;1.516;2023-04-29T01:32:34;13.96;64.15
72772;SHT30;60894;42.544;1.516;2023-04-29T01:35:23;13.99;64.27
72772;SHT30;60894;42.544;1.516;2023-04-29T01:37:58;13.86;64.66
72772;SHT30;60894;42.544;1.516;2023-04-29T01:40:35;13.70;65.20
72772;SHT30;60894;42.544;1.516;2023-04-29T01:43:04;13.77;65.29
72772;SHT30;60894;42.544;1.516;2023-04-29T01:45:37;13.83;64.89
72772;SHT30;60894;42.544;1.516;2023-04-29T01:48:06;13.75;65.19
72772;SHT30;60894;42.544;1.516;2023-04-29T01:50:33;13.72;65.05
72772;SHT30;60894;42.544;1.516;2023-04-29T01:53:00;13.62;65.13
72772;SHT30;60894;42.544;1.516;2023-04-29T01:55:27;13.67;65.27
72772;SHT30;60894;42.544;1.516;2023-04-29T01:57:55;13.67;64.93
72772;SHT30;60894;42.544;1.516;2023-04-29T02:00:22;13.59;65.53
72772;SHT30;60894;42.544;1.516;2023-04-29T02:02:49;13.62;65.37
72772;SHT30;60894;42.544;1.516;2023-04-29T02:05:16;13.62;65.37
72772;SHT30;60894;42.544;1.516;2023-04-29T02:07:43;13.46;65.86
72772;SHT30;60894;42.544;1.516;2023-04-29T02:10:10;13.48;65.77
72772;SHT30;60894;42.544;1.516;2023-04-29T02:12:37;13.45;65.69
72772;SHT30;60894;42.544;1.516;2023-04-29T02:15:07;13.44;65.82
72772;SHT30;60894;42.544;1.516;2023-04-29T02:17:34;13.51;64.84
72772;SHT30;60894;42.544;1.516;2023-04-29T02:20:01;13.45;64.78
72772;SHT30;60894;42.544;1.516;2023-04-29T02:22:28;13.31;66.19
72772;SHT30;60894;42.544;1.516;2023-04-29T02:24:55;13.25;66.44
72772;SHT30;60894;42.544;1.516;2023-04-29T02:27:22;13.25;66.49
72772;SHT30;60894;42.544;1.516;2023-04-29T02:29:49;13.22;66.41
72772;SHT30;60894;42.544;1.516;2023-04-29T02:32:18;13.21;66.25
72772;SHT30;60894;42.544;1.516;2023-04-29T02:34:45;13.18;66.20
72772;SHT30;60894;42.544;1.516;2023-04-29T02:37:13;13.10;66.66
72772;SHT30;60894;42.544;1.516;2023-04-29T02:39:40;13.17;66.49
72772;SHT30;60894;42.544;1.516;2023-04-29T02:42:07;13.10;66.36
72772;SHT30;60894;42.544;1.516;2023-04-29T02:44:34;13.03;66.98
72772;SHT30;60894;42.544;1.516;2023-04-29T02:47:01;13.04;67.04
72772;SHT30;60894;42.544;1.516;2023-04-29T02:49:29;12.95;67.14
72772;SHT30;60894;42.544;1.516;2023-04-29T02:51:56;12.90;67.02
72772;SHT30;60894;42.544;1.516;2023-04-29T02:54:24;12.93;67.04
72772;SHT30;60894;42.544;1.516;2023-04-29T02:56:51;12.98;66.64
72772;SHT30;60894;42.544;1.516;2023-04-29T02:59:18;12.91;66.92
72772;SHT30;60894;42.544;1.516;2023-04-29T03:01:45;12.86;67.36
72772;SHT30;60894;42.544;1.516;2023-04-29T03:04:12;12.84;67.29
72772;SHT30;60894;42.544;1.516;2023-04-29T03:06:40;12.84;67.05
72772;SHT30;60894;42.544;1.516;2023-04-29T03:09:08;12.80;66.98
72772;SHT30;60894;42.544;1.516;2023-04-29T03:11:35;12.87;66.80
72772;SHT30;60894;42.544;1.516;2023-04-29T03:14:01;12.88;66.86
72772;SHT30;60894;42.544;1.516;2023-04-29T03:16:29;12.80;67.16
72772;SHT30;60894;42.544;1.516;2023-04-29T03:18:56;12.76;67.10
72772;SHT30;60894;42.544;1.516;2023-04-29T03:21:23;12.70;67.54
72772;SHT30;60894;42.544;1.516;2023-04-29T03:23:52;12.70;67.59
72772;SHT30;60894;42.544;1.516;2023-04-29T03:26:19;12.80;67.08
72772;SHT30;60894;42.544;1.516;2023-04-29T03:28:47;12.76;66.83
72772;SHT30;60894;42.544;1.516;2023-04-29T03:31:14;12.74;66.50
72772;SHT30;60894;42.544;1.516;2023-04-29T03:33:41;12.63;67.70
72772;SHT30;60894;42.544;1.516;2023-04-29T03:36:08;12.55;67.83
72772;SHT30;60894;42.544;1.516;2023-04-29T03:38:35;12.42;67.95
72772;SHT30;60894;42.544;1.516;2023-04-29T03:41:03;12.50;67.60
72772;SHT30;60894;42.544;1.516;2023-04-29T03:43:30;12.50;67.60
72772;SHT30;60894;42.544;1.516;2023-04-29T03:45:57;12.43;67.88
72772;SHT30;60894;42.544;1.516;2023-04-29T03:48:24;12.43;67.79
72772;SHT30;60894;42.544;1.516;2023-04-29T03:50:51;12.42;67.68
72772;SHT30;60894;42.544;1.516;2023-04-29T03:53:18;12.37;67.87
72772;SHT30;60894;42.544;1.516;2023-04-29T03:55:46;12.32;67.92
72772;SHT30;60894;42.544;1.516;2023-04-29T03:58:14;12.35;67.99
72772;SHT30;60894;42.544;1.516;2023-04-29T04:00:41;12.25;68.20
72772;SHT30;60894;42.544;1.516;2023-04-29T04:03:08;12.23;68.45
72772;SHT30;60894;42.544;1.516;2023-04-29T04:05:35;12.22;68.55
72772;SHT30;60894;42.544;1.516;2023-04-29T04:08:02;12.32;68.13
72772;SHT30;60894;42.544;1.516;2023-04-29T04:10:29;12.35;67.75
72772;SHT30;60894;42.544;1.516;2023-04-29T04:12:56;12.32;67.92
72772;SHT30;60894;42.544;1.516;2023-04-29T04:15:24;12.22;68.17
72772;SHT30;60894;42.544;1.516;2023-04-29T04:17:51;12.06;68.54
72772;SHT30;60894;42.544;1.516;2023-04-29T04:20:18;12.05;68.51
72772;SHT30;60894;42.544;1.516;2023-04-29T04:22:45;12.08;68.41
72772;SHT30;60894;42.544;1.516;2023-04-29T04:25:12;12.02;68.83
72772;SHT30;60894;42.544;1.516;2023-04-29T04:27:39;12.01;68.74
72772;SHT30;60894;42.544;1.516;2023-04-29T04:30:07;12.05;68.62
72772;SHT30;60894;42.544;1.516;2023-04-29T04:32:35;12.02;68.73
72772;SHT30;60894;42.544;1.516;2023-04-29T04:35:04;12.05;68.56
72772;SHT30;60894;42.544;1.516;2023-04-29T04:37:32;11.91;68.80
72772;SHT30;60894;42.544;1.516;2023-04-29T04:39:59;11.94;68.80
72772;SHT30;60894;42.544;1.516;2023-04-29T04:42:26;11.89;68.73
72772;SHT30;60894;42.544;1.516;2023-04-29T04:44:53;11.81;69.17
72772;SHT30;60894;42.544;1.516;2023-04-29T04:47:20;11.75;69.54
72772;SHT30;60894;42.544;1.516;2023-04-29T04:49:48;11.75;69.47
72772;SHT30;60894;42.544;1.516;2023-04-29T04:52:19;11.77;69.27
72772;SHT30;60894;42.544;1.516;2023-04-29T04:54:46;11.75;69.45
72772;SHT30;60894;42.544;1.516;2023-04-29T04:57:13;11.70;69.49
72772;SHT30;60894;42.544;1.516;2023-04-29T04:59:41;11.71;69.70
72772;SHT30;60894;42.544;1.516;2023-04-29T05:02:08;11.63;69.87
72772;SHT30;60894;42.544;1.516;2023-04-29T05:04:35;11.67;70.04
72772;SHT30;60894;42.544;1.516;2023-04-29T05:07:03;11.70;69.99
72772;SHT30;60894;42.544;1.516;2023-04-29T05:09:30;11.74;69.78
72772;SHT30;60894;42.544;1.516;2023-04-29T05:11:57;11.67;69.76
72772;SHT30;60894;42.544;1.516;2023-04-29T05:14:24;11.75;69.60
72772;SHT30;60894;42.544;1.516;2023-04-29T05:16:51;11.79;69.44
72772;SHT30;60894;42.544;1.516;2023-04-29T05:19:18;11.79;69.31
72772;SHT30;60894;42.544;1.516;2023-04-29T05:21:45;11.78;69.27
72772;SHT30;60894;42.544;1.516;2023-04-29T05:24:13;11.79;69.52
72772;SHT30;60894;42.544;1.516;2023-04-29T05:26:40;11.81;69.24
72772;SHT30;60894;42.544;1.516;2023-04-29T05:29:08;11.85;69.15
72772;SHT30;60894;42.544;1.516;2023-04-29T05:31:35;11.88;68.96
72772;SHT30;60894;42.544;1.516;2023-04-29T05:34:03;11.82;69.35
72772;SHT30;60894;42.544;1.516;2023-04-29T05:36:30;11.82;69.30
72772;SHT30;60894;42.544;1.516;2023-04-29T05:38:57;11.82;69.19
72772;SHT30;60894;42.544;1.516;2023-04-29T05:41:25;11.89;69.03
72772;SHT30;60894;42.544;1.516;2023-04-29T05:43:52;11.92;68.77
72772;SHT30;60894;42.544;1.516;2023-04-29T05:46:19;11.99;68.69
72772;SHT30;60894;42.544;1.516;2023-04-29T05:48:47;11.94;68.73
72772;SHT30;60894;42.544;1.516;2023-04-29T05:51:14;12.02;68.67
72772;SHT30;60894;42.544;1.516;2023-04-29T05:53:41;11.99;68.82
72772;SHT30;60894;42.544;1.516;2023-04-29T05:56:08;11.88;69.18
72772;SHT30;60894;42.544;1.516;2023-04-29T05:58:36;11.92;69.10
72772;SHT30;60894;42.544;1.516;2023-04-29T06:01:03;11.94;68.99
72772;SHT30;60894;42.544;1.516;2023-04-29T06:03:30;11.91;68.94
72772;SHT30;60894;42.544;1.516;2023-04-29T06:05:57;11.95;69.01
72772;SHT30;60894;42.544;1.516;2023-04-29T06:08:26;11.96;68.82
72772;SHT30;60894;42.544;1.516;2023-04-29T06:10:53;12.06;68.65
72772;SHT30;60894;42.544;1.516;2023-04-29T06:13:20;12.11;68.43
72772;SHT30;60894;42.544;1.516;2023-04-29T06:15:48;12.04;68.55
72772;SHT30;60894;42.544;1.516;2023-04-29T06:18:15;12.12;68.45
72772;SHT30;60894;42.544;1.516;2023-04-29T06:20:42;12.09;68.79
72772;SHT30;60894;42.544;1.516;2023-04-29T06:23:09;12.22;68.56
72772;SHT30;60894;42.544;1.516;2023-04-29T06:25:37;12.23;68.68
72772;SHT30;60894;42.544;1.516;2023-04-29T06:28:04;12.33;68.40
72772;SHT30;60894;42.544;1.516;2023-04-29T06:30:32;12.46;67.90
72772;SHT30;60894;42.544;1.516;2023-04-29T06:33:01;12.49;67.98
72772;SHT30;60894;42.544;1.516;2023-04-29T06:35:28;12.66;67.45
72772;SHT30;60894;42.544;1.516;2023-04-29T06:37:55;12.70;67.02
72772;SHT30;60894;42.544;1.516;2023-04-29T06:40:21;12.76;66.74
72772;SHT30;60894;42.544;1.516;2023-04-29T06:42:48;12.84;66.55
72772;SHT30;60894;42.544;1.516;2023-04-29T06:45:16;12.94;66.04
72772;SHT30;60894;42.544;1.516;2023-04-29T06:47:43;13.04;65.74
72772;SHT30;60894;42.544;1.516;2023-04-29T06:50:12;13.15;65.78
72772;SHT30;60894;42.544;1.516;2023-04-29T06:52:39;13.31;65.45
72772;SHT30;60894;42.544;1.516;2023-04-29T06:55:07;13.45;64.99
72772;SHT30;60894;42.544;1.516;2023-04-29T06:57:35;13.56;64.39
72772;SHT30;60894;42.544;1.516;2023-04-29T07:00:03;13.59;64.22
72772;SHT30;60894;42.544;1.516;2023-04-29T07:02:30;13.63;64.28
72772;SHT30;60894;42.544;1.516;2023-04-29T07:04:58;13.76;63.55
72772;SHT30;60894;42.544;1.516;2023-04-29T07:07:26;13.89;62.92
72772;SHT30;60894;42.544;1.516;2023-04-29T07:09:53;13.99;62.87
72772;SHT30;60894;42.544;1.516;2023-04-29T07:12:20;14.07;62.43
72772;SHT30;60894;42.544;1.516;2023-04-29T07:14:47;14.20;62.35
72772;SHT30;60894;42.544;1.516;2023-04-29T07:17:14;14.26;62.24
72772;SHT30;60894;42.544;1.516;2023-04-29T07:19:41;14.37;61.77
72772;SHT30;60894;42.544;1.516;2023-04-29T07:22:08;14.49;61.37
72772;SHT30;60894;42.544;1.516;2023-04-29T07:24:37;14.67;60.72
72772;SHT30;60894;42.544;1.516;2023-04-29T07:27:04;14.77;60.93
72772;SHT30;60894;42.544;1.516;2023-04-29T07:29:32;14.91;60.43
72772;SHT30;60894;42.544;1.516;2023-04-29T07:31:59;14.98;59.80
72772;SHT30;60894;42.544;1.516;2023-04-29T07:34:25;15.12;59.80
72772;SHT30;60894;42.544;1.516;2023-04-29T07:36:52;15.30;58.87
72772;SHT30;60894;42.544;1.516;2023-04-29T07:39:20;15.44;57.85
72772;SHT30;60894;42.544;1.516;2023-04-29T07:41:48;15.57;57.30
72772;SHT30;60894;42.544;1.516;2023-04-29T07:44:16;15.71;56.93
72772;SHT30;60894;42.544;1.516;2023-04-29T07:46:43;15.86;56.13
72772;SHT30;60894;42.544;1.516;2023-04-29T07:49:10;16.01;55.56
72772;SHT30;60894;42.544;1.516;2023-04-29T07:51:40;16.12;55.58
72772;SHT30;60894;42.544;1.516;2023-04-29T07:54:07;16.19;55.71
72772;SHT30;60894;42.544;1.516;2023-04-29T07:56:34;16.33;55.30
72772;SHT30;60894;42.544;1.516;2023-04-29T07:59:02;16.51;55.10
72772;SHT30;60894;42.544;1.516;2023-04-29T08:01:29;16.53;54.91
72772;SHT30;60894;42.544;1.516;2023-04-29T08:03:57;16.62;53.42
72772;SHT30;60894;42.544;1.516;2023-04-29T08:06:24;16.73;54.77
72772;SHT30;60894;42.544;1.516;2023-04-29T08:08:51;16.87;54.84
72772;SHT30;60894;42.544;1.516;2023-04-29T08:11:19;16.97;52.00
72772;SHT30;60894;42.544;1.516;2023-04-29T08:13:49;17.09;51.64
72772;SHT30;60894;42.544;1.516;2023-04-29T08:16:17;17.17;52.04
72772;SHT30;60894;42.544;1.516;2023-04-29T08:18:46;17.34;52.10
72772;SHT30;60894;42.544;1.516;2023-04-29T08:21:13;17.51;50.65
72772;SHT30;60894;42.544;1.516;2023-04-29T08:23:40;17.65;51.02
72772;SHT30;60894;42.544;1.516;2023-04-29T08:26:09;17.78;48.28
72772;SHT30;60894;42.544;1.516;2023-04-29T08:28:37;17.93;48.78
72772;SHT30;60894;42.544;1.516;2023-04-29T08:31:04;18.12;46.45
72772;SHT30;60894;42.544;1.516;2023-04-29T08:33:33;18.26;46.22
72772;SHT30;60894;42.544;1.516;2023-04-29T08:36:01;18.37;46.35
72772;SHT30;60894;42.544;1.516;2023-04-29T08:38:29;18.56;46.33
72772;SHT30;60894;42.544;1.516;2023-04-29T08:40:56;18.70;46.37
72772;SHT30;60894;42.544;1.516;2023-04-29T08:43:23;18.81;46.57
72772;SHT30;60894;42.544;1.516;2023-04-29T08:45:51;18.92;46.41
72772;SHT30;60894;42.544;1.516;2023-04-29T08:48:18;19.12;45.80
72772;SHT30;60894;42.544;1.516;2023-04-29T08:50:46;19.36;44.94
72772;SHT30;60894;42.544;1.516;2023-04-29T08:53:14;19.53;44.67
72772;SHT30;60894;42.544;1.516;2023-04-29T08:55:42;19.72;44.03
72772;SHT30;60894;42.544;1.516;2023-04-29T08:58:10;19.87;43.71
72772;SHT30;60894;42.544;1.516;2023-04-29T09:00:37;20.06;42.90
72772;SHT30;60894;42.544;1.516;2023-04-29T09:03:12;20.27;42.54
72772;SHT30;60894;42.544;1.516;2023-04-29T09:05:40;20.47;41.11
72772;SHT30;60894;42.544;1.516;2023-04-29T09:08:10;20.85;39.77
72772;SHT30;60894;42.544;1.516;2023-04-29T09:10:38;21.14;39.49
72772;SHT30;60894;42.544;1.516;2023-04-29T09:13:07;21.22;40.23
72772;SHT30;60894;42.544;1.516;2023-04-29T09:15:35;21.43;39.07
72772;SHT30;60894;42.544;1.516;2023-04-29T09:18:04;21.57;38.39
72772;SHT30;60894;42.544;1.516;2023-04-29T09:20:31;21.70;38.36
72772;SHT30;60894;42.544;1.516;2023-04-29T09:23:00;21.82;37.17
72772;SHT30;60894;42.544;1.516;2023-04-29T09:25:29;21.87;36.73
72772;SHT30;60894;42.544;1.516;2023-04-29T09:27:56;21.87;36.41
72772;SHT30;60894;42.544;1.516;2023-04-29T09:30:24;21.90;36.93
72772;SHT30;60894;42.544;1.516;2023-04-29T09:33:05;21.91;36.99
72772;SHT30;60894;42.544;1.516;2023-04-29T09:35:32;22.02;36.70
72772;SHT30;60894;42.544;1.516;2023-04-29T09:38:10;22.19;36.48
72772;SHT30;60894;42.544;1.516;2023-04-29T09:40:39;22.06;36.24
72772;SHT30;60894;42.544;1.516;2023-04-29T09:43:11;21.95;36.36
72772;SHT30;60894;42.544;1.516;2023-04-29T09:45:41;22.12;36.40
72772;SHT30;60894;42.544;1.516;2023-04-29T09:48:10;22.28;35.84
72772;SHT30;60894;42.544;1.516;2023-04-29T09:50:38;22.41;35.50
72772;SHT30;60894;42.544;1.516;2023-04-29T09:53:05;22.49;35.93
72772;SHT30;60894;42.544;1.516;2023-04-29T09:55:33;22.64;35.72
72772;SHT30;60894;42.544;1.516;2023-04-29T09:58:02;22.59;35.21
72772;SHT30;60894;42.544;1.516;2023-04-29T10:00:30;22.49;35.69
72772;SHT30;60894;42.544;1.516;2023-04-29T10:02:58;22.55;35.55
72772;SHT30;60894;42.544;1.516;2023-04-29T10:05:28;22.64;35.65
72772;SHT30;60894;42.544;1.516;2023-04-29T10:07:57;22.97;35.22
72772;SHT30;60894;42.544;1.516;2023-04-29T10:10:26;22.97;34.72
72772;SHT30;60894;42.544;1.516;2023-04-29T10:12:54;23.04;34.76
72772;SHT30;60894;42.544;1.516;2023-04-29T10:15:28;23.07;34.10
72772;SHT30;60894;42.544;1.516;2023-04-29T10:17:59;23.15;34.29
72772;SHT30;60894;42.544;1.516;2023-04-29T10:20:29;23.18;34.37
72772;SHT30;60894;42.544;1.516;2023-04-29T10:22:57;23.25;34.30
72772;SHT30;60894;42.544;1.516;2023-04-29T10:25:25;23.25;33.28
72772;SHT30;60894;42.544;1.516;2023-04-29T10:27:54;23.28;34.15
72772;SHT30;60894;42.544;1.516;2023-04-29T10:30:22;23.45;33.67
72772;SHT30;60894;42.544;1.516;2023-04-29T10:32:50;23.72;32.15
72772;SHT30;60894;42.544;1.516;2023-04-29T10:35:18;23.75;32.24
72772;SHT30;60894;42.544;1.516;2023-04-29T10:37:47;23.75;32.70
72772;SHT30;60894;42.544;1.516;2023-04-29T10:40:16;23.72;32.67
72772;SHT30;60894;42.544;1.516;2023-04-29T10:42:47;23.76;31.44
72772;SHT30;60894;42.544;1.516;2023-04-29T10:45:23;23.83;32.34
72772;SHT30;60894;42.544;1.516;2023-04-29T10:48:10;23.83;31.62
72772;SHT30;60894;42.544;1.516;2023-04-29T10:50:59;23.96;31.85
72772;SHT30;60894;42.544;1.516;2023-04-29T10:53:27;23.90;31.30
72772;SHT30;60894;42.544;1.516;2023-04-29T10:55:57;23.96;30.85
72772;SHT30;60894;42.544;1.516;2023-04-29T10:58:34;23.95;30.64
72772;SHT30;60894;42.544;1.516;2023-04-29T11:01:03;24.01;30.85
72772;SHT30;60894;42.544;1.516;2023-04-29T11:03:54;23.95;31.00
72772;SHT30;60894;42.544;1.516;2023-04-29T11:06:24;23.93;31.22
72772;SHT30;60894;42.544;1.516;2023-04-29T11:09:02;23.93;31.06
72772;SHT30;60894;42.544;1.516;2023-04-29T11:11:46;23.98;30.82
72772;SHT30;60894;42.544;1.516;2023-04-29T11:14:15;23.81;29.76
72772;SHT30;60894;42.544;1.516;2023-04-29T11:16:51;23.72;31.01
72772;SHT30;60894;42.544;1.516;2023-04-29T11:19:18;23.72;30.70
72772;SHT30;60894;42.544;1.516;2023-04-29T11:21:46;23.73;30.73
72772;SHT30;60894;42.544;1.516;2023-04-29T11:24:13;23.79;30.20
72772;SHT30;60894;42.544;1.516;2023-04-29T11:26:41;23.71;30.15
72772;SHT30;60894;42.544;1.516;2023-04-29T11:29:10;23.61;30.32
72772;SHT30;60894;42.544;1.516;2023-04-29T11:31:37;23.64;30.05
72772;SHT30;60894;42.544;1.516;2023-04-29T11:34:06;23.55;30.95
72772;SHT30;60894;42.544;1.516;2023-04-29T11:36:33;23.52;31.03
72772;SHT30;60894;42.544;1.516;2023-04-29T11:39:01;23.66;31.58
72772;SHT30;60894;42.544;1.516;2023-04-29T11:41:29;23.64;30.55
72772;SHT30;60894;42.544;1.516;2023-04-29T11:43:58;23.69;30.66
72772;SHT30;60894;42.544;1.516;2023-04-29T11:46:29;23.81;30.76
72772;SHT30;60894;42.544;1.516;2023-04-29T11:48:56;23.89;34.20
72772;SHT30;60894;42.544;1.516;2023-04-29T11:51:25;23.83;35.66
72772;SHT30;60894;42.544;1.516;2023-04-29T11:53:52;23.72;36.36
72772;SHT30;60894;42.544;1.516;2023-04-29T11:56:20;23.68;35.40
72772;SHT30;60894;42.544;1.516;2023-04-29T11:58:52;23.59;36.34
72772;SHT30;60894;42.544;1.516;2023-04-29T12:01:20;23.54;36.97
72772;SHT30;60894;42.544;1.516;2023-04-29T12:03:47;23.40;40.07
72772;SHT30;60894;42.544;1.516;2023-04-29T12:06:14;23.15;39.93
72772;SHT30;60894;42.544;1.516;2023-04-29T12:08:45;22.93;41.21
72772;SHT30;60894;42.544;1.516;2023-04-29T12:11:13;22.84;41.79
72772;SHT30;60894;42.544;1.516;2023-04-29T12:13:40;22.74;41.78
72772;SHT30;60894;42.544;1.516;2023-04-29T12:16:07;22.69;43.48
72772;SHT30;60894;42.544;1.516;2023-04-29T12:18:35;22.67;44.17
72772;SHT30;60894;42.544;1.516;2023-04-29T12:21:03;22.67;43.40
72772;SHT30;60894;42.544;1.516;2023-04-29T12:23:31;22.64;42.87
72772;SHT30;60894;42.544;1.516;2023-04-29T12:25:59;22.74;42.55
72772;SHT30;60894;42.544;1.516;2023-04-29T12:28:27;22.77;42.76
72772;SHT30;60894;42.544;1.516;2023-04-29T12:30:56;22.67;43.40
72772;SHT30;60894;42.544;1.516;2023-04-29T12:33:25;22.43;44.24
72772;SHT30;60894;42.544;1.516;2023-04-29T12:35:54;22.36;45.61
72772;SHT30;60894;42.544;1.516;2023-04-29T12:38:23;22.16;45.71
72772;SHT30;60894;42.544;1.516;2023-04-29T12:40:52;22.16;46.51
72772;SHT30;60894;42.544;1.516;2023-04-29T12:43:25;22.19;46.19
72772;SHT30;60894;42.544;1.516;2023-04-29T12:45:53;22.11;46.42
72772;SHT30;60894;42.544;1.516;2023-04-29T12:48:21;22.04;49.61
72772;SHT30;60894;42.544;1.516;2023-04-29T12:50:48;21.80;49.28
72772;SHT30;60894;42.544;1.516;2023-04-29T12:53:16;21.55;48.60
72772;SHT30;60894;42.544;1.516;2023-04-29T12:55:43;21.51;49.76
72772;SHT30;60894;42.544;1.516;2023-04-29T12:58:10;21.44;52.27
72772;SHT30;60894;42.544;1.516;2023-04-29T13:00:38;20.91;57.09
72772;SHT30;60894;42.544;1.516;2023-04-29T13:03:05;20.55;61.31
72772;SHT30;60894;42.544;1.516;2023-04-29T13:05:32;20.25;61.74
72772;SHT30;60894;42.544;1.516;2023-04-29T13:07:59;19.98;59.80
72772;SHT30;60894;42.544;1.516;2023-04-29T13:10:27;19.96;60.86
72772;SHT30;60894;42.544;1.516;2023-04-29T13:12:54;19.89;60.89
72772;SHT30;60894;42.544;1.516;2023-04-29T13:15:21;19.77;60.96
72772;SHT30;60894;42.544;1.516;2023-04-29T13:17:49;19.79;63.05
72772;SHT30;60894;42.544;1.516;2023-04-29T13:20:17;19.86;63.45
72772;SHT30;60894;42.544;1.516;2023-04-29T13:22:45;19.84;64.13
72772;SHT30;60894;42.544;1.516;2023-04-29T13:25:12;19.96;61.61
72772;SHT30;60894;42.544;1.516;2023-04-29T13:27:40;20.32;59.82
72772;SHT30;60894;42.544;1.516;2023-04-29T13:30:08;20.88;59.40
72772;SHT30;60894;42.544;1.516;2023-04-29T13:32:36;21.41;62.09
72772;SHT30;60894;42.544;1.516;2023-04-29T13:35:07;21.24;62.64
72772;SHT30;60894;42.544;1.516;2023-04-29T13:37:34;21.14;61.18
72772;SHT30;60894;42.544;1.516;2023-04-29T13:40:01;20.98;61.82
72772;SHT30;60894;42.544;1.516;2023-04-29T13:42:28;20.47;60.20
72772;SHT30;60894;42.544;1.516;2023-04-29T13:44:55;20.42;59.59
72772;SHT30;60894;42.544;1.516;2023-04-29T13:47:22;20.37;62.03
72772;SHT30;60894;42.544;1.516;2023-04-29T13:49:49;20.18;67.42
72772;SHT30;60894;42.544;1.516;2023-04-29T13:52:18;20.00;69.00
72772;SHT30;60894;42.544;1.516;2023-04-29T13:54:44;19.74;69.84
72772;SHT30;60894;42.544;1.516;2023-04-29T13:57:11;19.50;71.01
72772;SHT30;60894;42.544;1.516;2023-04-29T13:59:38;19.38;69.97
72772;SHT30;60894;42.544;1.516;2023-04-29T14:02:05;19.38;68.87
72772;SHT30;60894;42.544;1.516;2023-04-29T14:04:32;19.25;68.54
72772;SHT30;60894;42.544;1.516;2023-04-29T14:06:59;19.32;71.57
72772;SHT30;60894;42.544;1.516;2023-04-29T14:09:27;19.38;69.28
72772;SHT30;60894;42.544;1.516;2023-04-29T14:11:54;19.52;72.25
72772;SHT30;60894;42.544;1.516;2023-04-29T14:14:22;19.42;72.37
72772;SHT30;60894;42.544;1.516;2023-04-29T14:16:49;19.49;70.82
72772;SHT30;60894;42.544;1.516;2023-04-29T14:19:15;19.49;71.00
72772;SHT30;60894;42.544;1.516;2023-04-29T14:21:42;19.50;70.97
72772;SHT30;60894;42.544;1.516;2023-04-29T14:24:09;19.60;68.91
72772;SHT30;60894;42.544;1.516;2023-04-29T14:26:38;19.62;66.34
72772;SHT30;60894;42.544;1.516;2023-04-29T14:29:05;19.55;66.58
72772;SHT30;60894;42.544;1.516;2023-04-29T14:31:33;19.43;66.70
72772;SHT30;60894;42.544;1.516;2023-04-29T14:34:03;19.43;67.16
72772;SHT30;60894;42.544;1.516;2023-04-29T14:36:30;19.48;71.55
72772;SHT30;60894;42.544;1.516;2023-04-29T14:38:58;19.36;72.74
72772;SHT30;60894;42.544;1.516;2023-04-29T14:41:25;19.25;64.37
72772;SHT30;60894;42.544;1.516;2023-04-29T14:43:53;19.07;62.72
72772;SHT30;60894;42.544;1.516;2023-04-29T14:46:20;18.84;65.33
72772;SHT30;60894;42.544;1.516;2023-04-29T14:48:47;18.68;66.92
72772;SHT30;60894;42.544;1.516;2023-04-29T14:51:14;18.41;67.17
72772;SHT30;60894;42.544;1.516;2023-04-29T14:53:41;18.19;67.27
72772;SHT30;60894;42.544;1.516;2023-04-29T14:56:08;18.20;66.66
72772;SHT30;60894;42.544;1.516;2023-04-29T14:58:35;18.30;65.60
72772;SHT30;60894;42.544;1.516;2023-04-29T15:01:03;18.34;66.12
72772;SHT30;60894;42.544;1.516;2023-04-29T15:03:30;18.22;66.62
72772;SHT30;60894;42.544;1.516;2023-04-29T15:05:59;18.20;67.06
72772;SHT30;60894;42.544;1.516;2023-04-29T15:08:28;18.25;66.38
72772;SHT30;60894;42.544;1.516;2023-04-29T15:10:55;18.34;67.77
72772;SHT30;60894;42.544;1.516;2023-04-29T15:13:22;18.25;70.21
72772;SHT30;60894;42.544;1.516;2023-04-29T15:15:48;18.20;71.02
72772;SHT30;60894;42.544;1.516;2023-04-29T15:18:17;18.17;71.22
72772;SHT30;60894;42.544;1.516;2023-04-29T15:20:46;18.14;72.69
72772;SHT30;60894;42.544;1.516;2023-04-29T15:23:13;18.09;70.06
72772;SHT30;60894;42.544;1.516;2023-04-29T15:25:40;17.95;70.17
72772;SHT30;60894;42.544;1.516;2023-04-29T15:28:07;17.93;69.08
72772;SHT30;60894;42.544;1.516;2023-04-29T15:30:34;17.95;70.84
72772;SHT30;60894;42.544;1.516;2023-04-29T15:33:01;17.78;67.10
72772;SHT30;60894;42.544;1.516;2023-04-29T15:35:30;17.68;66.81